الصفحة الرئيسية
METAR-TAF:

METAR-TAF

مطار :

ألباني, أستراليا

دائرة عرض: 34-56-36S, خط طول: 117-48-32E, ارتفاع: 71 متر

مراقبة الطقس الحالي

تاريخ ووقت الإصدار 35 دقيقة قبل الساعة 19:00UTC
ريح 3 عقدة من الشرق/الجنوب الشرقي
درجة الحرارة 11°درجة مئوية
الرطوبة 94%
ضغط 1026 hPa
الرؤية 10 كم أو أكثر

METAR: YABA 171900Z AUTO 11003KT 9999 // NCD 11/10 Q1026

زمن: 03:35 (19:35 UTC)


TAF: مفقودة

أرصاد الطقس والتوقعات من أكثر من 4000 مطار (تقارير الطقس للمطار METAR والتنبؤ بالطقس بالمطارTAF).

المحطات المتاحة هي النقط الصفراء والحمراء على الخريطة.

حرك المؤشر فوق النقطة لمعرفة اسم المحطة.

ثم انقر لمعرفة أرصاد وتوقعات الطقس.

لتغيير الخارطة: اضغط على الأزرار الخضراء مع رمز الصليب الأسود للتكبير. على الزر الأخضر مع شرطة للتصغير، أو على الأسهم الخضراء للخرائط المجاورة.


METAR-TAF: